sensor_id;sensor_type;location;lat;lon;timestamp;P1;durP1;ratioP1;P2;durP2;ratioP2
3193;SDS011;1608;50.860;13.466;2022-08-24T00:00:21;10.73;;;9.67;;
3193;SDS011;1608;50.860;13.466;2022-08-24T00:02:50;10.67;;;8.40;;
3193;SDS011;1608;50.860;13.466;2022-08-24T00:05:17;13.30;;;9.00;;
3193;SDS011;1608;50.860;13.466;2022-08-24T00:07:46;10.77;;;9.07;;
3193;SDS011;1608;50.860;13.466;2022-08-24T00:10:13;13.63;;;11.17;;
3193;SDS011;1608;50.860;13.466;2022-08-24T00:12:41;9.13;;;8.23;;
3193;SDS011;1608;50.860;13.466;2022-08-24T00:15:09;11.03;;;9.00;;
3193;SDS011;1608;50.860;13.466;2022-08-24T00:17:37;10.20;;;9.20;;
3193;SDS011;1608;50.860;13.466;2022-08-24T00:20:07;10.03;;;9.00;;
3193;SDS011;1608;50.860;13.466;2022-08-24T00:22:35;9.20;;;7.67;;
3193;SDS011;1608;50.860;13.466;2022-08-24T00:25:03;10.50;;;9.50;;
3193;SDS011;1608;50.860;13.466;2022-08-24T00:27:31;9.53;;;8.37;;
3193;SDS011;1608;50.860;13.466;2022-08-24T00:29:58;9.33;;;8.33;;
3193;SDS011;1608;50.860;13.466;2022-08-24T00:32:25;9.80;;;8.80;;
3193;SDS011;1608;50.860;13.466;2022-08-24T00:34:54;10.27;;;8.87;;
3193;SDS011;1608;50.860;13.466;2022-08-24T00:37:22;13.90;;;10.20;;
3193;SDS011;1608;50.860;13.466;2022-08-24T00:39:49;11.03;;;9.93;;
3193;SDS011;1608;50.860;13.466;2022-08-24T00:42:16;10.73;;;9.63;;
3193;SDS011;1608;50.860;13.466;2022-08-24T00:44:43;13.43;;;9.80;;
3193;SDS011;1608;50.860;13.466;2022-08-24T00:47:10;13.53;;;12.13;;
3193;SDS011;1608;50.860;13.466;2022-08-24T00:49:43;14.97;;;12.20;;
3193;SDS011;1608;50.860;13.466;2022-08-24T00:52:16;13.33;;;11.10;;
3193;SDS011;1608;50.860;13.466;2022-08-24T00:54:48;12.37;;;11.17;;
3193;SDS011;1608;50.860;13.466;2022-08-24T00:57:19;13.60;;;12.20;;
3193;SDS011;1608;50.860;13.466;2022-08-24T00:59:51;14.77;;;11.13;;
3193;SDS011;1608;50.860;13.466;2022-08-24T01:02:23;10.83;;;9.80;;
3193;SDS011;1608;50.860;13.466;2022-08-24T01:04:52;13.47;;;11.07;;
3193;SDS011;1608;50.860;13.466;2022-08-24T01:07:22;11.47;;;10.00;;
3193;SDS011;1608;50.860;13.466;2022-08-24T01:09:51;14.30;;;9.60;;
3193;SDS011;1608;50.860;13.466;2022-08-24T01:12:20;10.03;;;8.97;;
3193;SDS011;1608;50.860;13.466;2022-08-24T01:14:49;14.80;;;8.80;;
3193;SDS011;1608;50.860;13.466;2022-08-24T01:17:16;10.73;;;9.70;;
3193;SDS011;1608;50.860;13.466;2022-08-24T01:20:00;11.00;;;9.90;;
3193;SDS011;1608;50.860;13.466;2022-08-24T01:22:33;12.53;;;10.00;;
3193;SDS011;1608;50.860;13.466;2022-08-24T01:25:09;13.20;;;9.00;;
3193;SDS011;1608;50.860;13.466;2022-08-24T01:27:36;9.23;;;8.00;;
3193;SDS011;1608;50.860;13.466;2022-08-24T01:30:06;10.23;;;8.97;;
3193;SDS011;1608;50.860;13.466;2022-08-24T01:32:35;14.67;;;10.50;;
3193;SDS011;1608;50.860;13.466;2022-08-24T01:35:03;14.67;;;10.53;;
3193;SDS011;1608;50.860;13.466;2022-08-24T01:37:31;11.33;;;9.57;;
3193;SDS011;1608;50.860;13.466;2022-08-24T01:39:59;13.00;;;9.97;;
3193;SDS011;1608;50.860;13.466;2022-08-24T01:42:29;11.93;;;10.47;;
3193;SDS011;1608;50.860;13.466;2022-08-24T01:44:58;10.93;;;9.83;;
3193;SDS011;1608;50.860;13.466;2022-08-24T01:47:25;13.00;;;11.70;;
3193;SDS011;1608;50.860;13.466;2022-08-24T01:49:52;12.37;;;10.10;;
3193;SDS011;1608;50.860;13.466;2022-08-24T01:52:20;12.33;;;10.90;;
3193;SDS011;1608;50.860;13.466;2022-08-24T01:54:48;12.30;;;11.00;;
3193;SDS011;1608;50.860;13.466;2022-08-24T01:57:15;16.30;;;11.70;;
3193;SDS011;1608;50.860;13.466;2022-08-24T01:59:43;18.13;;;10.50;;
3193;SDS011;1608;50.860;13.466;2022-08-24T02:02:10;12.40;;;9.90;;
3193;SDS011;1608;50.860;13.466;2022-08-24T02:04:41;13.40;;;11.30;;
3193;SDS011;1608;50.860;13.466;2022-08-24T02:07:07;13.63;;;11.90;;
3193;SDS011;1608;50.860;13.466;2022-08-24T02:09:34;11.63;;;9.23;;
3193;SDS011;1608;50.860;13.466;2022-08-24T02:12:03;11.93;;;10.70;;
3193;SDS011;1608;50.860;13.466;2022-08-24T02:14:31;12.43;;;11.13;;
3193;SDS011;1608;50.860;13.466;2022-08-24T02:16:59;10.53;;;9.37;;
3193;SDS011;1608;50.860;13.466;2022-08-24T02:19:28;11.57;;;10.37;;
3193;SDS011;1608;50.860;13.466;2022-08-24T02:21:55;11.10;;;10.03;;
3193;SDS011;1608;50.860;13.466;2022-08-24T02:24:22;14.33;;;11.07;;
3193;SDS011;1608;50.860;13.466;2022-08-24T02:26:49;11.20;;;10.00;;
3193;SDS011;1608;50.860;13.466;2022-08-24T02:29:16;13.37;;;11.00;;
3193;SDS011;1608;50.860;13.466;2022-08-24T02:31:42;14.20;;;11.40;;
3193;SDS011;1608;50.860;13.466;2022-08-24T02:34:11;17.00;;;12.30;;
3193;SDS011;1608;50.860;13.466;2022-08-24T02:36:38;18.30;;;13.37;;
3193;SDS011;1608;50.860;13.466;2022-08-24T02:39:05;18.30;;;14.80;;
3193;SDS011;1608;50.860;13.466;2022-08-24T02:41:33;13.90;;;12.30;;
3193;SDS011;1608;50.860;13.466;2022-08-24T02:44:00;14.17;;;12.10;;
3193;SDS011;1608;50.860;13.466;2022-08-24T02:46:28;12.27;;;10.97;;
3193;SDS011;1608;50.860;13.466;2022-08-24T02:48:56;15.50;;;11.37;;
3193;SDS011;1608;50.860;13.466;2022-08-24T02:51:26;13.10;;;11.07;;
3193;SDS011;1608;50.860;13.466;2022-08-24T02:53:56;13.60;;;10.93;;
3193;SDS011;1608;50.860;13.466;2022-08-24T02:56:25;16.40;;;11.50;;
3193;SDS011;1608;50.860;13.466;2022-08-24T02:58:54;19.23;;;11.30;;
3193;SDS011;1608;50.860;13.466;2022-08-24T03:01:20;14.50;;;12.87;;
3193;SDS011;1608;50.860;13.466;2022-08-24T03:03:47;17.03;;;12.33;;
3193;SDS011;1608;50.860;13.466;2022-08-24T03:06:14;16.10;;;11.73;;
3193;SDS011;1608;50.860;13.466;2022-08-24T03:08:42;20.00;;;13.37;;
3193;SDS011;1608;50.860;13.466;2022-08-24T03:11:10;15.70;;;13.03;;
3193;SDS011;1608;50.860;13.466;2022-08-24T03:13:38;14.83;;;11.80;;
3193;SDS011;1608;50.860;13.466;2022-08-24T03:16:05;15.03;;;12.33;;
3193;SDS011;1608;50.860;13.466;2022-08-24T03:18:33;14.27;;;12.57;;
3193;SDS011;1608;50.860;13.466;2022-08-24T03:21:00;14.93;;;11.83;;
3193;SDS011;1608;50.860;13.466;2022-08-24T03:23:28;20.47;;;13.13;;
3193;SDS011;1608;50.860;13.466;2022-08-24T03:25:56;15.17;;;10.33;;
3193;SDS011;1608;50.860;13.466;2022-08-24T03:28:23;15.40;;;11.90;;
3193;SDS011;1608;50.860;13.466;2022-08-24T03:30:50;13.77;;;11.27;;
3193;SDS011;1608;50.860;13.466;2022-08-24T03:33:17;11.80;;;10.60;;
3193;SDS011;1608;50.860;13.466;2022-08-24T03:35:45;17.83;;;11.47;;
3193;SDS011;1608;50.860;13.466;2022-08-24T03:38:12;16.07;;;11.63;;
3193;SDS011;1608;50.860;13.466;2022-08-24T03:40:39;18.27;;;11.67;;
3193;SDS011;1608;50.860;13.466;2022-08-24T03:43:07;13.23;;;10.83;;
3193;SDS011;1608;50.860;13.466;2022-08-24T03:45:54;14.50;;;9.87;;
3193;SDS011;1608;50.860;13.466;2022-08-24T03:48:21;11.97;;;9.53;;
3193;SDS011;1608;50.860;13.466;2022-08-24T03:50:48;13.30;;;9.17;;
3193;SDS011;1608;50.860;13.466;2022-08-24T03:53:15;10.90;;;9.77;;
3193;SDS011;1608;50.860;13.466;2022-08-24T03:55:42;12.70;;;11.30;;
3193;SDS011;1608;50.860;13.466;2022-08-24T03:58:10;10.53;;;9.40;;
3193;SDS011;1608;50.860;13.466;2022-08-24T04:00:37;9.40;;;8.47;;
3193;SDS011;1608;50.860;13.466;2022-08-24T04:03:06;14.60;;;10.97;;
3193;SDS011;1608;50.860;13.466;2022-08-24T04:05:33;13.47;;;11.20;;
3193;SDS011;1608;50.860;13.466;2022-08-24T04:08:00;11.90;;;10.70;;
3193;SDS011;1608;50.860;13.466;2022-08-24T04:10:27;13.43;;;11.40;;
3193;SDS011;1608;50.860;13.466;2022-08-24T04:12:54;14.70;;;11.90;;
3193;SDS011;1608;50.860;13.466;2022-08-24T04:15:22;12.60;;;10.90;;
3193;SDS011;1608;50.860;13.466;2022-08-24T04:17:49;10.87;;;9.50;;
3193;SDS011;1608;50.860;13.466;2022-08-24T04:20:16;11.90;;;10.70;;
3193;SDS011;1608;50.860;13.466;2022-08-24T04:22:43;16.43;;;11.17;;
3193;SDS011;1608;50.860;13.466;2022-08-24T04:25:10;14.47;;;11.23;;
3193;SDS011;1608;50.860;13.466;2022-08-24T04:27:37;12.50;;;11.20;;
3193;SDS011;1608;50.860;13.466;2022-08-24T04:30:06;16.17;;;12.50;;
3193;SDS011;1608;50.860;13.466;2022-08-24T04:32:35;13.47;;;12.13;;
3193;SDS011;1608;50.860;13.466;2022-08-24T04:35:02;13.10;;;11.80;;
3193;SDS011;1608;50.860;13.466;2022-08-24T04:37:29;12.90;;;11.60;;
3193;SDS011;1608;50.860;13.466;2022-08-24T04:39:56;14.20;;;12.33;;
3193;SDS011;1608;50.860;13.466;2022-08-24T04:42:23;18.03;;;13.23;;
3193;SDS011;1608;50.860;13.466;2022-08-24T04:44:50;12.53;;;11.23;;
3193;SDS011;1608;50.860;13.466;2022-08-24T04:47:16;13.23;;;11.87;;
3193;SDS011;1608;50.860;13.466;2022-08-24T04:49:45;12.50;;;11.00;;
3193;SDS011;1608;50.860;13.466;2022-08-24T04:52:11;13.03;;;11.37;;
3193;SDS011;1608;50.860;13.466;2022-08-24T04:54:38;17.00;;;12.90;;
3193;SDS011;1608;50.860;13.466;2022-08-24T04:57:05;12.60;;;10.97;;
3193;SDS011;1608;50.860;13.466;2022-08-24T04:59:32;16.50;;;11.70;;
3193;SDS011;1608;50.860;13.466;2022-08-24T05:01:58;13.07;;;11.30;;
3193;SDS011;1608;50.860;13.466;2022-08-24T05:04:25;13.10;;;11.90;;
3193;SDS011;1608;50.860;13.466;2022-08-24T05:06:53;14.43;;;11.80;;
3193;SDS011;1608;50.860;13.466;2022-08-24T05:09:20;12.20;;;10.60;;
3193;SDS011;1608;50.860;13.466;2022-08-24T05:11:47;16.77;;;11.40;;
3193;SDS011;1608;50.860;13.466;2022-08-24T05:14:15;11.60;;;10.53;;
3193;SDS011;1608;50.860;13.466;2022-08-24T05:16:41;14.40;;;11.00;;
3193;SDS011;1608;50.860;13.466;2022-08-24T05:19:09;13.37;;;11.20;;
3193;SDS011;1608;50.860;13.466;2022-08-24T05:21:36;15.30;;;13.70;;
3193;SDS011;1608;50.860;13.466;2022-08-24T05:24:05;14.03;;;10.97;;
3193;SDS011;1608;50.860;13.466;2022-08-24T05:26:32;13.47;;;12.10;;
3193;SDS011;1608;50.860;13.466;2022-08-24T05:28:59;15.23;;;12.43;;
3193;SDS011;1608;50.860;13.466;2022-08-24T05:31:28;16.03;;;12.93;;
3193;SDS011;1608;50.860;13.466;2022-08-24T05:33:56;15.73;;;13.27;;
3193;SDS011;1608;50.860;13.466;2022-08-24T05:36:24;13.73;;;12.13;;
3193;SDS011;1608;50.860;13.466;2022-08-24T05:38:55;19.47;;;12.90;;
3193;SDS011;1608;50.860;13.466;2022-08-24T05:43:59;17.60;;;12.60;;
3193;SDS011;1608;50.860;13.466;2022-08-24T05:46:26;14.20;;;12.57;;
3193;SDS011;1608;50.860;13.466;2022-08-24T05:48:53;12.87;;;11.57;;
3193;SDS011;1608;50.860;13.466;2022-08-24T05:51:20;14.00;;;10.73;;
3193;SDS011;1608;50.860;13.466;2022-08-24T05:53:46;19.20;;;12.23;;
3193;SDS011;1608;50.860;13.466;2022-08-24T05:56:14;14.60;;;11.53;;
3193;SDS011;1608;50.860;13.466;2022-08-24T05:58:42;12.37;;;11.20;;
3193;SDS011;1608;50.860;13.466;2022-08-24T06:01:12;12.77;;;11.53;;
3193;SDS011;1608;50.860;13.466;2022-08-24T06:03:40;14.10;;;12.47;;
3193;SDS011;1608;50.860;13.466;2022-08-24T06:06:08;16.93;;;12.53;;
3193;SDS011;1608;50.860;13.466;2022-08-24T06:08:38;17.30;;;12.37;;
3193;SDS011;1608;50.860;13.466;2022-08-24T06:11:06;15.30;;;13.80;;
3193;SDS011;1608;50.860;13.466;2022-08-24T06:13:33;22.00;;;15.00;;
3193;SDS011;1608;50.860;13.466;2022-08-24T06:16:01;18.03;;;16.13;;
3193;SDS011;1608;50.860;13.466;2022-08-24T06:18:34;21.57;;;15.80;;
3193;SDS011;1608;50.860;13.466;2022-08-24T06:21:05;17.63;;;14.30;;
3193;SDS011;1608;50.860;13.466;2022-08-24T06:23:33;20.33;;;14.57;;
3193;SDS011;1608;50.860;13.466;2022-08-24T06:26:01;23.97;;;15.33;;
3193;SDS011;1608;50.860;13.466;2022-08-24T06:28:46;19.07;;;15.63;;
3193;SDS011;1608;50.860;13.466;2022-08-24T06:31:13;17.83;;;16.00;;
3193;SDS011;1608;50.860;13.466;2022-08-24T06:33:41;17.23;;;15.20;;
3193;SDS011;1608;50.860;13.466;2022-08-24T06:36:08;18.10;;;14.50;;
3193;SDS011;1608;50.860;13.466;2022-08-24T06:38:34;18.73;;;15.10;;
3193;SDS011;1608;50.860;13.466;2022-08-24T06:41:02;21.80;;;15.30;;
3193;SDS011;1608;50.860;13.466;2022-08-24T06:43:29;18.07;;;15.67;;
3193;SDS011;1608;50.860;13.466;2022-08-24T06:45:56;20.97;;;12.80;;
3193;SDS011;1608;50.860;13.466;2022-08-24T06:48:23;15.77;;;14.17;;
3193;SDS011;1608;50.860;13.466;2022-08-24T06:50:52;16.10;;;14.40;;
3193;SDS011;1608;50.860;13.466;2022-08-24T06:53:19;15.60;;;14.03;;
3193;SDS011;1608;50.860;13.466;2022-08-24T06:55:46;17.70;;;15.10;;
3193;SDS011;1608;50.860;13.466;2022-08-24T06:58:14;15.57;;;13.67;;
3193;SDS011;1608;50.860;13.466;2022-08-24T07:00:41;14.90;;;13.40;;
3193;SDS011;1608;50.860;13.466;2022-08-24T07:03:08;18.33;;;14.80;;
3193;SDS011;1608;50.860;13.466;2022-08-24T07:05:35;17.00;;;15.30;;
3193;SDS011;1608;50.860;13.466;2022-08-24T07:08:04;16.57;;;13.80;;
3193;SDS011;1608;50.860;13.466;2022-08-24T07:10:31;15.83;;;14.30;;
3193;SDS011;1608;50.860;13.466;2022-08-24T07:12:59;18.63;;;13.00;;
3193;SDS011;1608;50.860;13.466;2022-08-24T07:15:26;18.80;;;15.90;;
3193;SDS011;1608;50.860;13.466;2022-08-24T07:17:53;16.27;;;14.60;;
3193;SDS011;1608;50.860;13.466;2022-08-24T07:20:20;18.43;;;15.40;;
3193;SDS011;1608;50.860;13.466;2022-08-24T07:22:47;16.90;;;14.37;;
3193;SDS011;1608;50.860;13.466;2022-08-24T07:25:15;17.30;;;15.30;;
3193;SDS011;1608;50.860;13.466;2022-08-24T07:27:42;17.83;;;15.93;;
3193;SDS011;1608;50.860;13.466;2022-08-24T07:30:09;20.00;;;14.80;;
3193;SDS011;1608;50.860;13.466;2022-08-24T07:32:36;17.17;;;13.90;;
3193;SDS011;1608;50.860;13.466;2022-08-24T07:35:03;17.53;;;14.80;;
3193;SDS011;1608;50.860;13.466;2022-08-24T07:37:30;15.43;;;13.83;;
3193;SDS011;1608;50.860;13.466;2022-08-24T07:39:57;21.13;;;14.87;;
3193;SDS011;1608;50.860;13.466;2022-08-24T07:42:25;15.63;;;12.57;;
3193;SDS011;1608;50.860;13.466;2022-08-24T07:44:52;17.50;;;13.93;;
3193;SDS011;1608;50.860;13.466;2022-08-24T07:47:19;18.00;;;13.83;;
3193;SDS011;1608;50.860;13.466;2022-08-24T07:49:46;19.60;;;14.00;;
3193;SDS011;1608;50.860;13.466;2022-08-24T07:52:13;14.83;;;13.33;;
3193;SDS011;1608;50.860;13.466;2022-08-24T07:54:40;19.90;;;12.90;;
3193;SDS011;1608;50.860;13.466;2022-08-24T07:57:07;20.80;;;13.63;;
3193;SDS011;1608;50.860;13.466;2022-08-24T07:59:35;20.13;;;15.17;;
3193;SDS011;1608;50.860;13.466;2022-08-24T08:02:03;23.20;;;13.57;;
3193;SDS011;1608;50.860;13.466;2022-08-24T08:04:32;20.00;;;14.97;;
3193;SDS011;1608;50.860;13.466;2022-08-24T08:06:59;19.83;;;14.07;;
3193;SDS011;1608;50.860;13.466;2022-08-24T08:09:26;17.67;;;13.63;;
3193;SDS011;1608;50.860;13.466;2022-08-24T08:11:53;15.83;;;12.37;;
3193;SDS011;1608;50.860;13.466;2022-08-24T08:14:19;20.93;;;13.07;;
3193;SDS011;1608;50.860;13.466;2022-08-24T08:16:48;13.53;;;11.93;;
3193;SDS011;1608;50.860;13.466;2022-08-24T08:19:14;16.67;;;12.00;;
3193;SDS011;1608;50.860;13.466;2022-08-24T08:21:42;22.47;;;13.00;;
3193;SDS011;1608;50.860;13.466;2022-08-24T08:24:27;18.47;;;11.57;;
3193;SDS011;1608;50.860;13.466;2022-08-24T08:26:54;13.90;;;11.47;;
3193;SDS011;1608;50.860;13.466;2022-08-24T08:29:21;13.73;;;12.33;;
3193;SDS011;1608;50.860;13.466;2022-08-24T08:31:50;15.30;;;11.63;;
3193;SDS011;1608;50.860;13.466;2022-08-24T08:34:17;12.53;;;11.23;;
3193;SDS011;1608;50.860;13.466;2022-08-24T08:36:45;10.10;;;9.10;;
3193;SDS011;1608;50.860;13.466;2022-08-24T08:39:13;11.63;;;8.67;;
3193;SDS011;1608;50.860;13.466;2022-08-24T08:41:50;12.13;;;9.00;;
3193;SDS011;1608;50.860;13.466;2022-08-24T08:44:44;12.13;;;10.20;;
3193;SDS011;1608;50.860;13.466;2022-08-24T08:47:36;14.20;;;11.23;;
3193;SDS011;1608;50.860;13.466;2022-08-24T08:50:18;11.73;;;10.47;;
3193;SDS011;1608;50.860;13.466;2022-08-24T08:55:52;14.27;;;11.20;;
3193;SDS011;1608;50.860;13.466;2022-08-24T08:58:32;12.27;;;10.97;;
3193;SDS011;1608;50.860;13.466;2022-08-24T09:01:18;11.00;;;9.40;;
3193;SDS011;1608;50.860;13.466;2022-08-24T09:04:00;10.17;;;8.77;;
3193;SDS011;1608;50.860;13.466;2022-08-24T09:06:41;15.23;;;10.00;;
3193;SDS011;1608;50.860;13.466;2022-08-24T09:12:20;12.57;;;9.87;;
3193;SDS011;1608;50.860;13.466;2022-08-24T09:15:02;16.73;;;9.70;;
3193;SDS011;1608;50.860;13.466;2022-08-24T09:17:41;16.17;;;11.07;;
3193;SDS011;1608;50.860;13.466;2022-08-24T09:20:30;14.47;;;11.60;;
3193;SDS011;1608;50.860;13.466;2022-08-24T09:23:12;12.97;;;10.77;;
3193;SDS011;1608;50.860;13.466;2022-08-24T09:25:47;15.40;;;11.00;;
3193;SDS011;1608;50.860;13.466;2022-08-24T09:28:31;11.80;;;7.83;;
3193;SDS011;1608;50.860;13.466;2022-08-24T09:34:17;11.73;;;9.43;;
3193;SDS011;1608;50.860;13.466;2022-08-24T09:36:54;11.33;;;8.80;;
3193;SDS011;1608;50.860;13.466;2022-08-24T09:39:37;11.30;;;10.10;;
3193;SDS011;1608;50.860;13.466;2022-08-24T09:42:23;11.80;;;9.60;;
3193;SDS011;1608;50.860;13.466;2022-08-24T09:45:13;12.53;;;8.67;;
3193;SDS011;1608;50.860;13.466;2022-08-24T09:48:00;15.40;;;11.87;;
3193;SDS011;1608;50.860;13.466;2022-08-24T09:50:54;12.10;;;10.80;;
3193;SDS011;1608;50.860;13.466;2022-08-24T09:53:43;11.40;;;10.20;;
3193;SDS011;1608;50.860;13.466;2022-08-24T09:56:38;12.07;;;10.80;;
3193;SDS011;1608;50.860;13.466;2022-08-24T09:59:23;13.20;;;10.80;;
3193;SDS011;1608;50.860;13.466;2022-08-24T10:02:06;14.60;;;12.07;;
3193;SDS011;1608;50.860;13.466;2022-08-24T10:04:49;13.30;;;12.00;;
3193;SDS011;1608;50.860;13.466;2022-08-24T10:07:25;19.87;;;11.80;;
3193;SDS011;1608;50.860;13.466;2022-08-24T10:10:05;14.17;;;12.87;;
3193;SDS011;1608;50.860;13.466;2022-08-24T10:12:44;24.10;;;13.90;;
3193;SDS011;1608;50.860;13.466;2022-08-24T10:15:19;14.67;;;13.20;;
3193;SDS011;1608;50.860;13.466;2022-08-24T10:17:57;20.67;;;14.93;;
3193;SDS011;1608;50.860;13.466;2022-08-24T10:20:46;17.03;;;14.87;;
3193;SDS011;1608;50.860;13.466;2022-08-24T10:26:29;18.77;;;15.87;;
3193;SDS011;1608;50.860;13.466;2022-08-24T10:29:17;20.10;;;16.57;;
3193;SDS011;1608;50.860;13.466;2022-08-24T10:32:01;18.33;;;15.47;;
3193;SDS011;1608;50.860;13.466;2022-08-24T10:34:44;21.27;;;15.53;;
3193;SDS011;1608;50.860;13.466;2022-08-24T10:37:40;18.80;;;14.90;;
3193;SDS011;1608;50.860;13.466;2022-08-24T10:40:38;21.83;;;13.80;;
3193;SDS011;1608;50.860;13.466;2022-08-24T10:46:10;16.20;;;12.07;;
3193;SDS011;1608;50.860;13.466;2022-08-24T10:51:58;15.70;;;12.73;;
3193;SDS011;1608;50.860;13.466;2022-08-24T10:54:45;16.00;;;12.77;;
3193;SDS011;1608;50.860;13.466;2022-08-24T10:57:14;14.37;;;12.90;;
3193;SDS011;1608;50.860;13.466;2022-08-24T10:59:52;12.93;;;11.20;;
3193;SDS011;1608;50.860;13.466;2022-08-24T11:02:28;19.53;;;12.03;;
3193;SDS011;1608;50.860;13.466;2022-08-24T11:04:58;16.30;;;11.40;;
3193;SDS011;1608;50.860;13.466;2022-08-24T11:07:26;14.50;;;10.57;;
3193;SDS011;1608;50.860;13.466;2022-08-24T11:09:54;15.67;;;12.07;;
3193;SDS011;1608;50.860;13.466;2022-08-24T11:12:24;12.47;;;11.17;;
3193;SDS011;1608;50.860;13.466;2022-08-24T11:14:56;13.27;;;11.23;;
3193;SDS011;1608;50.860;13.466;2022-08-24T11:17:26;17.37;;;11.70;;
3193;SDS011;1608;50.860;13.466;2022-08-24T11:19:55;16.40;;;13.13;;
3193;SDS011;1608;50.860;13.466;2022-08-24T11:22:26;13.60;;;11.63;;
3193;SDS011;1608;50.860;13.466;2022-08-24T11:24:59;12.60;;;11.30;;
3193;SDS011;1608;50.860;13.466;2022-08-24T11:27:30;14.57;;;10.43;;
3193;SDS011;1608;50.860;13.466;2022-08-24T11:30:04;15.00;;;11.40;;
3193;SDS011;1608;50.860;13.466;2022-08-24T11:32:38;15.20;;;12.43;;
3193;SDS011;1608;50.860;13.466;2022-08-24T11:35:14;13.17;;;11.87;;
3193;SDS011;1608;50.860;13.466;2022-08-24T11:37:43;16.57;;;13.03;;
3193;SDS011;1608;50.860;13.466;2022-08-24T11:40:11;16.33;;;12.17;;
3193;SDS011;1608;50.860;13.466;2022-08-24T11:42:43;16.83;;;11.90;;
3193;SDS011;1608;50.860;13.466;2022-08-24T11:45:21;15.77;;;14.00;;
3193;SDS011;1608;50.860;13.466;2022-08-24T11:47:58;14.40;;;11.83;;
3193;SDS011;1608;50.860;13.466;2022-08-24T11:50:33;19.27;;;13.60;;
3193;SDS011;1608;50.860;13.466;2022-08-24T11:53:08;17.17;;;12.97;;
3193;SDS011;1608;50.860;13.466;2022-08-24T11:55:46;15.50;;;12.60;;
3193;SDS011;1608;50.860;13.466;2022-08-24T11:58:30;19.50;;;16.60;;
3193;SDS011;1608;50.860;13.466;2022-08-24T12:01:16;22.57;;;14.20;;
3193;SDS011;1608;50.860;13.466;2022-08-24T12:04:05;18.67;;;14.43;;
3193;SDS011;1608;50.860;13.466;2022-08-24T12:06:44;12.97;;;11.07;;
3193;SDS011;1608;50.860;13.466;2022-08-24T12:09:19;17.93;;;13.40;;
3193;SDS011;1608;50.860;13.466;2022-08-24T12:12:05;23.07;;;14.60;;
3193;SDS011;1608;50.860;13.466;2022-08-24T12:14:38;22.27;;;18.47;;
3193;SDS011;1608;50.860;13.466;2022-08-24T12:17:13;18.93;;;16.90;;
3193;SDS011;1608;50.860;13.466;2022-08-24T12:19:47;16.77;;;13.67;;
3193;SDS011;1608;50.860;13.466;2022-08-24T12:22:16;15.30;;;13.40;;
3193;SDS011;1608;50.860;13.466;2022-08-24T12:24:47;16.10;;;13.50;;
3193;SDS011;1608;50.860;13.466;2022-08-24T12:27:17;17.97;;;13.33;;
3193;SDS011;1608;50.860;13.466;2022-08-24T12:29:48;17.13;;;15.00;;
3193;SDS011;1608;50.860;13.466;2022-08-24T12:32:20;18.20;;;14.03;;
3193;SDS011;1608;50.860;13.466;2022-08-24T12:34:52;17.93;;;15.10;;
3193;SDS011;1608;50.860;13.466;2022-08-24T12:37:23;15.83;;;13.73;;
3193;SDS011;1608;50.860;13.466;2022-08-24T12:39:56;19.60;;;13.80;;
3193;SDS011;1608;50.860;13.466;2022-08-24T12:42:33;16.50;;;13.03;;
3193;SDS011;1608;50.860;13.466;2022-08-24T12:45:06;15.83;;;12.17;;
3193;SDS011;1608;50.860;13.466;2022-08-24T12:47:38;20.30;;;13.00;;
3193;SDS011;1608;50.860;13.466;2022-08-24T12:50:13;16.23;;;11.37;;
3193;SDS011;1608;50.860;13.466;2022-08-24T12:52:51;15.53;;;12.20;;
3193;SDS011;1608;50.860;13.466;2022-08-24T12:55:43;16.70;;;13.57;;
3193;SDS011;1608;50.860;13.466;2022-08-24T12:58:27;16.50;;;13.57;;
3193;SDS011;1608;50.860;13.466;2022-08-24T13:01:08;18.60;;;15.57;;
3193;SDS011;1608;50.860;13.466;2022-08-24T13:03:40;22.37;;;15.23;;
3193;SDS011;1608;50.860;13.466;2022-08-24T13:06:09;23.03;;;14.90;;
3193;SDS011;1608;50.860;13.466;2022-08-24T13:08:45;20.37;;;15.47;;
3193;SDS011;1608;50.860;13.466;2022-08-24T13:11:26;19.97;;;15.93;;
3193;SDS011;1608;50.860;13.466;2022-08-24T13:14:04;16.00;;;13.37;;
3193;SDS011;1608;50.860;13.466;2022-08-24T13:16:47;17.60;;;11.47;;
3193;SDS011;1608;50.860;13.466;2022-08-24T13:19:29;15.17;;;12.40;;
3193;SDS011;1608;50.860;13.466;2022-08-24T13:21:59;16.60;;;13.40;;
3193;SDS011;1608;50.860;13.466;2022-08-24T13:25:24;17.63;;;14.60;;
3193;SDS011;1608;50.860;13.466;2022-08-24T13:28:06;20.03;;;13.30;;
3193;SDS011;1608;50.860;13.466;2022-08-24T13:33:40;23.27;;;15.67;;
3193;SDS011;1608;50.860;13.466;2022-08-24T13:39:34;16.77;;;14.93;;
3193;SDS011;1608;50.860;13.466;2022-08-24T13:42:39;19.80;;;14.77;;
3193;SDS011;1608;50.860;13.466;2022-08-24T13:45:21;25.23;;;14.43;;
3193;SDS011;1608;50.860;13.466;2022-08-24T13:47:54;20.20;;;15.30;;
3193;SDS011;1608;50.860;13.466;2022-08-24T13:50:35;17.50;;;13.40;;
3193;SDS011;1608;50.860;13.466;2022-08-24T13:59:06;23.30;;;15.40;;
3193;SDS011;1608;50.860;13.466;2022-08-24T14:01:37;17.00;;;13.50;;
3193;SDS011;1608;50.860;13.466;2022-08-24T14:04:30;23.10;;;17.20;;
3193;SDS011;1608;50.860;13.466;2022-08-24T14:07:12;17.57;;;14.60;;
3193;SDS011;1608;50.860;13.466;2022-08-24T14:09:45;25.67;;;15.80;;
3193;SDS011;1608;50.860;13.466;2022-08-24T14:15:24;24.20;;;13.93;;
3193;SDS011;1608;50.860;13.466;2022-08-24T14:18:02;25.00;;;14.90;;
3193;SDS011;1608;50.860;13.466;2022-08-24T14:20:48;19.40;;;14.50;;
3193;SDS011;1608;50.860;13.466;2022-08-24T14:23:36;19.77;;;13.93;;
3193;SDS011;1608;50.860;13.466;2022-08-24T14:29:31;19.13;;;12.40;;
3193;SDS011;1608;50.860;13.466;2022-08-24T14:35:12;16.17;;;13.53;;
3193;SDS011;1608;50.860;13.466;2022-08-24T14:41:20;17.13;;;13.27;;
3193;SDS011;1608;50.860;13.466;2022-08-24T14:44:02;23.40;;;14.97;;
3193;SDS011;1608;50.860;13.466;2022-08-24T14:46:39;22.03;;;15.03;;
3193;SDS011;1608;50.860;13.466;2022-08-24T14:49:15;19.50;;;14.40;;
3193;SDS011;1608;50.860;13.466;2022-08-24T14:54:50;18.20;;;12.43;;
3193;SDS011;1608;50.860;13.466;2022-08-24T14:57:34;19.40;;;14.77;;
3193;SDS011;1608;50.860;13.466;2022-08-24T15:00:11;20.87;;;15.13;;
3193;SDS011;1608;50.860;13.466;2022-08-24T15:03:04;16.53;;;13.13;;
3193;SDS011;1608;50.860;13.466;2022-08-24T15:05:45;23.33;;;15.50;;
3193;SDS011;1608;50.860;13.466;2022-08-24T15:08:29;19.67;;;15.10;;
3193;SDS011;1608;50.860;13.466;2022-08-24T15:11:00;20.20;;;15.87;;
3193;SDS011;1608;50.860;13.466;2022-08-24T15:13:35;16.70;;;14.10;;
3193;SDS011;1608;50.860;13.466;2022-08-24T15:16:07;23.50;;;16.67;;
3193;SDS011;1608;50.860;13.466;2022-08-24T15:18:39;21.30;;;14.33;;
3193;SDS011;1608;50.860;13.466;2022-08-24T15:21:13;15.07;;;13.20;;
3193;SDS011;1608;50.860;13.466;2022-08-24T15:23:51;16.70;;;15.00;;
3193;SDS011;1608;50.860;13.466;2022-08-24T15:26:29;16.93;;;14.70;;
3193;SDS011;1608;50.860;13.466;2022-08-24T15:29:07;18.90;;;13.77;;
3193;SDS011;1608;50.860;13.466;2022-08-24T15:31:39;18.33;;;14.20;;
3193;SDS011;1608;50.860;13.466;2022-08-24T15:34:08;17.57;;;12.57;;
3193;SDS011;1608;50.860;13.466;2022-08-24T15:36:35;16.40;;;11.37;;
3193;SDS011;1608;50.860;13.466;2022-08-24T15:39:02;14.53;;;13.07;;
3193;SDS011;1608;50.860;13.466;2022-08-24T15:41:32;18.07;;;12.63;;
3193;SDS011;1608;50.860;13.466;2022-08-24T15:44:01;16.60;;;12.07;;
3193;SDS011;1608;50.860;13.466;2022-08-24T15:46:32;17.43;;;13.73;;
3193;SDS011;1608;50.860;13.466;2022-08-24T15:49:05;23.53;;;14.50;;
3193;SDS011;1608;50.860;13.466;2022-08-24T15:51:45;15.37;;;13.10;;
3193;SDS011;1608;50.860;13.466;2022-08-24T15:54:27;16.70;;;12.00;;